Latest Weather Observations for Sydney Airport

IDN60901

Issued at 9:25 pm EST Tuesday 2 September 2014 (issued every 10 minutes, with the page automatically refreshed every 10 minutes)

About weather observations | Map of Sydney area stations | Latest observations for Sydney area | Other Formats
Station Details ID: 066037 Name: SYDNEY AIRPORT AMO Lat: -33.95 Lon: 151.17 Height: 6.0 m
Data from the previous 72 hours. | See also: Recent months at Sydney Airport
Date/Time
EST
Tmp

°C
App
Tmp
°C
Dew
Point
°C
Rel
Hum
%
Delta-T

°C
Wind Press
QNH
hPa
Press
MSL
hPa
Rain
since
9 am
mm
Dir
 
Spd
km/h
Gust
km/h
Spd
kts
Gust
kts
02/09:00pm 10.8 2.9 4.6 65 2.8 WSW 35 48 19 26 1011.7 1011.7 1.0
02/08:30pm 11.3 3.5 4.9 65 2.9 WSW 35 44 19 24 1011.5 - 1.0
02/08:00pm 12.0 4.9 6.3 68 2.7 SW 33 41 18 22 1011.1 1011.1 1.0
02/07:30pm 12.3 5.1 7.6 73 2.3 SSW 35 43 19 23 1010.9 - 1.0
02/07:19pm 12.3 5.9 8.5 77 1.9 SSW 32 50 17 27 1011.0 - 1.0
02/07:00pm 12.2 7.2 8.1 76 2.0 SSW 24 28 13 15 1010.6 1010.6 1.0
02/06:30pm 12.1 5.8 7.6 74 2.2 SW 30 35 16 19 1010.4 - 1.0
02/06:00pm 13.0 5.5 6.5 64 3.1 SW 35 46 19 25 1009.9 1009.9 1.0
02/05:51pm 12.9 6.8 6.4 64 3.1 WSW 28 46 15 25 1009.8 - 1.0
02/05:30pm 12.7 6.2 6.6 66 2.9 WSW 30 37 16 20 1009.5 - 1.0
02/05:00pm 13.1 6.2 6.4 64 3.2 W 32 41 17 22 1009.3 1009.3 1.0
02/04:30pm 13.9 8.6 6.7 62 3.5 W 24 35 13 19 1008.8 - 1.0
02/04:00pm 13.4 9.0 7.3 66 3.0 SW 20 30 11 16 1008.4 1008.4 1.0
02/03:30pm 13.5 7.5 7.1 65 3.1 SW 28 37 15 20 1008.4 - 1.0
02/03:00pm 13.2 7.6 8.8 74 2.2 SSW 28 33 15 18 1008.0 1008.0 1.0
02/02:30pm 13.6 7.6 8.6 72 2.5 SSW 30 41 16 22 1007.8 - 0.4
02/02:00pm 14.6 8.3 9.6 72 2.6 SSW 33 46 18 25 1007.8 1007.8 0.0
02/01:30pm 14.2 8.5 9.7 74 2.3 SSW 30 37 16 20 1007.9 - 0.0
02/01:00pm 14.3 9.3 10.9 80 1.8 SSW 28 35 15 19 1008.0 1008.0 0.0
02/12:30pm 14.6 10.0 8.2 65 3.2 S 22 32 12 17 1008.0 - 0.0
02/12:00pm 15.1 9.6 5.9 54 4.4 W 24 30 13 16 1008.4 1008.4 0.0
02/11:30am 15.5 11.2 7.2 57 4.1 SSW 19 28 10 15 1008.3 - 0.0
02/11:00am 16.0 11.5 6.1 52 4.8 SSW 19 39 10 21 1008.9 1008.9 0.0
02/10:30am 16.0 9.7 5.9 51 4.9 WSW 28 35 15 19 1008.9 - 0.0
02/10:00am 17.3 13.6 6.3 48 5.4 WSW 15 19 8 10 1009.0 1009.0 0.0
02/09:30am 16.5 13.0 7.0 53 4.7 SW 15 19 8 10 1009.0 - 0.0
02/09:00am 16.6 14.1 6.4 51 5.0 W 9 15 5 8 1009.2 1009.2 0.2
02/08:30am 17.1 13.7 6.0 48 5.4 NW 13 17 7 9 1009.4 - 0.2
02/08:00am 17.4 14.0 5.7 46 5.7 NW 13 19 7 10 1009.5 1009.5 0.2
02/07:30am 17.2 13.2 5.1 44 5.8 NW 15 19 8 10 1009.6 - 0.2
02/07:00am 16.2 11.3 5.3 48 5.2 WNW 20 33 11 18 1009.5 1009.5 0.2
02/06:30am 16.0 11.1 5.3 49 5.1 W 20 26 11 14 1008.9 - 0.2
02/06:00am 15.8 9.0 5.0 48 5.1 W 30 37 16 20 1008.8 1008.8 0.2
02/05:30am 15.9 9.4 4.9 48 5.2 WSW 28 43 15 23 1008.4 - 0.2
02/05:00am 16.0 10.4 5.6 50 5.0 W 24 28 13 15 1008.6 1008.6 0.2
02/04:30am 16.2 11.4 5.6 49 5.1 WSW 20 28 11 15 1008.6 - 0.2
02/04:00am 16.4 11.2 5.3 47 5.3 W 22 28 12 15 1008.3 1008.3 0.2
02/03:30am 16.4 13.0 5.9 50 5.1 W 13 17 7 9 1008.2 - 0.2
02/03:00am 15.9 12.7 7.0 55 4.4 W 13 15 7 8 1008.3 1008.3 0.2
02/02:30am 16.9 14.8 5.8 48 5.4 NW 6 7 3 4 1008.2 - 0.2
02/02:00am 17.1 13.5 5.0 44 5.8 N 13 15 7 8 1008.5 1008.5 0.2
02/01:30am 17.1 14.2 4.7 44 5.9 NNW 9 9 5 5 1008.9 - 0.2
02/01:00am 17.3 14.0 4.4 42 6.1 N 11 13 6 7 1009.1 1009.1 0.2
02/12:30am 16.9 13.2 4.7 44 5.8 N 13 17 7 9 1009.5 - 0.2
 
Date/Time
EST
Tmp

°C
App
Tmp
°C
Dew
Point
°C
Rel
Hum
%
Delta-T

°C
Wind Press
QNH
hPa
Press
MSL
hPa
Rain
since
9 am
mm
Dir
 
Spd
km/h
Gust
km/h
Spd
kts
Gust
kts
01/11:30pm 17.8 14.7 5.4 44 6.0 N 11 13 6 7 1010.4 - 0.2
01/11:00pm 18.1 14.3 5.6 44 6.1 N 15 17 8 9 1010.6 1010.6 0.2
01/10:30pm 18.4 14.5 5.2 42 6.4 N 15 19 8 10 1010.7 - 0.2
01/10:00pm 19.1 14.7 4.8 39 6.9 NNW 17 22 9 12 1010.9 1010.9 0.2
01/09:30pm 18.7 14.1 5.4 41 6.5 N 19 24 10 13 1011.2 - 0.2
01/09:00pm 18.6 14.7 7.3 47 5.7 N 17 19 9 10 1011.3 1011.3 0.2
01/08:30pm 18.6 15.2 7.8 49 5.5 N 15 19 8 10 1011.5 - 0.2
01/08:00pm 19.1 15.9 8.5 50 5.5 N 15 17 8 9 1011.5 1011.5 0.2
01/07:30pm 19.6 17.8 9.4 51 5.4 NNW 9 11 5 6 1011.2 - 0.2
01/07:00pm 19.7 17.6 11.1 57 4.7 N 13 19 7 10 1011.1 1011.1 0.2
01/06:30pm 20.5 18.5 10.1 51 5.6 N 11 13 6 7 1010.8 - 0.2
01/06:00pm 20.7 16.7 9.2 47 6.1 NNE 20 28 11 15 1010.4 1010.4 0.2
01/05:30pm 20.2 14.9 8.3 46 6.2 NNE 26 30 14 16 1010.4 - 0.2
01/05:00pm 21.0 15.5 7.4 41 7.0 NNE 26 32 14 17 1010.5 1010.5 0.2
01/04:30pm 21.2 16.7 8.5 44 6.7 NE 22 28 12 15 1010.3 - 0.2
01/04:00pm 21.3 17.0 7.8 41 7.0 NE 20 26 11 14 1010.4 1010.4 0.2
01/03:30pm 22.5 17.9 6.4 35 8.2 NE 20 26 11 14 1010.6 - 0.2
01/03:00pm 22.9 18.1 5.6 32 8.7 NNE 20 26 11 14 1010.5 1010.5 0.2
01/02:30pm 23.6 19.9 2.1 24 10.2 E 11 17 6 9 1010.9 - 0.2
01/02:00pm 22.9 19.7 2.8 26 9.6 NW 9 13 5 7 1011.4 1011.4 0.2
01/01:30pm 23.6 19.7 3.4 26 9.8 NW 13 17 7 9 1012.1 - 0.2
01/01:00pm 23.0 19.8 4.9 31 9.0 W 11 17 6 9 1012.5 1012.5 0.2
01/12:30pm 22.4 19.1 4.5 31 8.8 WNW 11 17 6 9 1013.2 - 0.0
01/12:00pm 23.0 19.0 3.0 27 9.6 NW 13 17 7 9 1013.5 1013.5 0.0
01/11:30am 21.3 17.7 4.8 34 8.1 NW 13 19 7 10 1014.0 - 0.0
01/11:00am 21.7 18.5 6.8 38 7.6 NW 13 17 7 9 1014.7 1014.7 0.0
01/10:30am 19.5 16.8 9.0 50 5.5 NW 13 17 7 9 1015.3 - 0.0
01/10:00am 18.0 15.6 10.1 60 4.2 NW 13 19 7 10 1016.0 1016.0 0.0
01/09:30am 16.9 14.2 10.3 65 3.5 NW 15 19 8 10 1016.5 - 0.0
01/09:00am 15.3 13.0 10.3 72 2.6 NW 13 15 7 8 1016.9 1016.9 0.0
01/08:30am 13.9 11.2 10.2 78 1.9 NW 15 19 8 10 1017.3 - 0.0
01/08:00am 13.2 10.3 9.5 78 1.9 W 15 20 8 11 1017.3 1017.3 0.0
01/07:30am 13.0 10.6 10.1 82 1.5 WNW 13 17 7 9 1017.0 - 0.0
01/07:00am 12.6 10.2 10.1 85 1.3 NW 13 17 7 9 1016.8 1016.8 0.0
01/06:44am 12.4 10.0 10.1 86 1.2 NW 13 15 7 8 1016.8 - 0.0
01/06:30am 11.9 9.0 9.7 86 1.1 NW 15 19 8 10 1016.8 - 0.0
01/06:00am 11.8 8.9 9.8 87 1.0 NNW 15 17 8 9 1016.6 1016.6 0.0
01/05:45am 11.8 9.3 9.8 87 1.0 NNW 13 13 7 7 1016.5 - 0.0
01/05:30am 11.4 8.6 10.0 91 0.7 NW 15 17 8 9 1016.5 - 0.0
01/05:00am 11.3 8.6 10.3 94 0.5 NNW 15 17 8 9 1016.3 1016.3 0.0
01/04:30am 10.8 8.3 9.6 92 0.6 NNW 13 15 7 8 1016.1 - 0.0
01/04:00am 10.9 8.8 9.7 92 0.6 NNW 11 13 6 7 1016.0 1016.0 0.0
01/03:30am 11.3 9.2 9.9 91 0.7 NW 11 15 6 8 1015.9 - 0.0
01/03:00am 11.5 9.2 10.3 92 0.6 NW 13 17 7 9 1016.1 1016.1 0.0
01/02:30am 12.1 10.3 10.7 91 0.7 NNW 11 15 6 8 1016.4 - 0.0
01/02:00am 12.1 10.2 10.6 90 0.8 N 11 11 6 6 1016.6 1016.6 0.0
01/01:30am 12.8 10.6 10.9 88 1.0 N 13 13 7 7 1016.9 - 0.0
01/01:00am 13.0 10.9 11.1 88 1.0 N 13 15 7 8 1017.2 1017.2 0.0
01/12:30am 13.4 11.7 11.3 87 1.1 N 11 11 6 6 1017.4 - 0.0
01/12:00am 13.5 12.2 11.2 86 1.2 NNW 9 9 5 5 1017.7 1017.7 0.0
 
Date/Time
EST
Tmp

°C
App
Tmp
°C
Dew
Point
°C
Rel
Hum
%
Delta-T

°C
Wind Press
QNH
hPa
Press
MSL
hPa
Rain
since
9 am
mm
Dir
 
Spd
km/h
Gust
km/h
Spd
kts
Gust
kts
31/11:30pm 13.7 12.9 11.6 87 1.1 N 7 11 4 6 1018.0 - 0.0
31/11:00pm 13.9 12.7 11.7 86 1.2 NNW 9 11 5 6 1018.1 1018.1 0.0
31/10:30pm 14.3 12.9 12.1 87 1.2 WNW 11 13 6 7 1018.0 - 0.0
31/10:00pm 14.3 12.9 12.1 87 1.2 W 11 15 6 8 1018.2 1018.2 0.0
31/09:30pm 14.0 13.8 12.9 93 0.6 W 6 11 3 6 1018.0 - 0.0
31/09:00pm 14.8 15.9 13.4 91 0.8 CALM 0 0 0 0 1018.1 1018.1 0.0
31/08:30pm 15.6 16.4 12.5 82 1.7 CALM 0 0 0 0 1018.2 - 0.0
31/08:00pm 15.8 15.2 12.3 80 1.9 E 7 9 4 5 1018.1 1018.1 0.0
31/07:30pm 15.5 14.5 12.4 82 1.7 E 9 11 5 6 1018.0 - 0.0
31/07:00pm 16.0 15.1 12.5 80 1.9 ENE 9 9 5 5 1017.8 1017.8 0.0
31/06:30pm 16.5 15.1 12.3 76 2.3 ENE 11 13 6 7 1017.4 - 0.0
31/06:00pm 16.2 14.0 12.0 76 2.3 E 15 17 8 9 1017.3 1017.3 0.0
31/05:30pm 16.6 14.4 12.0 74 2.5 ESE 15 17 8 9 1017.2 - 0.0
31/05:00pm 17.4 15.0 11.3 67 3.3 ESE 15 19 8 10 1017.2 1017.2 0.0
31/04:30pm 17.5 14.7 11.2 66 3.4 ESE 17 20 9 11 1017.1 - 0.0
31/04:00pm 17.9 14.9 10.8 63 3.8 SE 17 20 9 11 1017.2 1017.2 0.0
31/03:30pm 18.3 14.9 10.7 61 4.1 ESE 19 24 10 13 1017.1 - 0.0
31/03:00pm 18.4 15.1 10.8 61 4.1 ESE 19 22 10 12 1017.3 1017.3 0.0
31/02:30pm 18.5 15.0 10.9 61 4.1 ESE 20 24 11 13 1017.5 - 0.0
31/02:00pm 18.3 15.1 11.1 63 3.9 SE 19 22 10 12 1017.8 1017.8 0.0
31/01:30pm 19.0 15.5 10.2 56 4.7 ESE 19 20 10 11 1018.1 - 0.0
31/01:00pm 18.3 15.8 11.1 63 3.9 SE 15 17 8 9 1018.5 1018.5 0.0
31/12:30pm 18.4 15.2 10.1 58 4.4 SSE 17 19 9 10 1019.0 - 0.0
31/12:00pm 18.3 15.8 10.9 62 4.0 SSE 15 17 8 9 1019.4 1019.4 0.0
31/11:30am 17.3 15.4 11.8 70 3.0 SSE 13 17 7 9 1019.7 - 0.0
31/11:00am 17.1 15.0 11.1 68 3.2 SSE 13 17 7 9 1020.1 1020.1 0.0
31/10:30am 17.4 15.5 10.4 63 3.7 SW 11 17 6 9 1020.5 - 0.0
31/10:00am 17.5 15.1 10.1 62 3.9 W 13 15 7 8 1020.6 1020.6 0.0
31/09:30am 16.7 14.0 9.1 61 3.9 W 13 15 7 8 1020.8 - 0.0
31/09:00am 16.1 12.7 9.1 63 3.6 W 17 19 9 10 1021.0 1021.0 1.0
31/08:30am 15.0 11.5 8.9 67 3.1 W 17 20 9 11 1021.2 - 1.0
31/08:00am 13.6 9.6 9.0 74 2.3 W 20 26 11 14 1021.1 1021.1 1.0
31/07:30am 13.5 9.1 8.9 74 2.3 W 22 35 12 19 1020.8 - 1.0
31/07:00am 13.8 9.4 9.0 73 2.4 WSW 22 35 12 19 1020.7 1020.7 1.0
31/06:30am 13.0 9.6 9.2 78 1.9 W 17 39 9 21 1020.6 - 1.0
31/06:00am 12.9 9.1 9.1 78 1.9 W 19 24 10 13 1020.4 1020.4 1.0
31/05:30am 12.5 8.5 8.9 79 1.8 W 20 26 11 14 1020.3 - 1.0
31/05:00am 12.2 8.8 9.0 81 1.6 W 17 22 9 12 1020.2 1020.2 1.0
31/04:30am 12.9 9.0 9.3 79 1.8 W 20 26 11 14 1020.1 - 1.0
31/04:00am 12.6 7.8 8.8 77 1.9 W 24 28 13 15 1020.2 1020.2 1.0
31/03:30am 12.1 8.3 9.1 82 1.5 W 19 22 10 12 1020.2 - 1.0
31/03:00am 12.7 9.9 10.0 84 1.4 W 15 19 8 10 1020.3 1020.3 1.0
31/02:30am 12.1 9.2 9.5 84 1.3 WSW 15 19 8 10 1020.5 - 1.0
31/02:00am 12.5 9.7 10.0 85 1.3 W 15 17 8 9 1020.7 1020.7 1.0
31/01:30am 13.7 10.1 10.6 81 1.6 SW 20 26 11 14 1020.9 - 1.0
31/01:00am 14.3 11.1 11.1 81 1.7 SW 19 24 10 13 1021.1 1021.1 1.0
31/12:30am 14.4 10.2 11.2 81 1.7 SW 24 30 13 16 1021.1 - 1.0
31/12:00am 14.3 10.2 11.3 82 1.6 SW 24 30 13 16 1021.4 1021.4 1.0
 
Date/Time
EST
Tmp

°C
App
Tmp
°C
Dew
Point
°C
Rel
Hum
%
Delta-T

°C
Wind Press
QNH
hPa
Press
MSL
hPa
Rain
since
9 am
mm
Dir
 
Spd
km/h
Gust
km/h
Spd
kts
Gust
kts
30/11:30pm 13.8 10.5 11.7 87 1.1 SW 20 26 11 14 1021.6 - 1.0
30/11:00pm 13.9 8.4 12.0 88 1.0 SSW 32 37 17 20 1021.8 1021.8 1.0
30/10:30pm 14.4 9.1 11.2 81 1.7 SSW 30 35 16 19 1021.7 - 1.0
30/10:00pm 14.4 9.4 11.0 80 1.8 SW 28 35 15 19 1021.9 1021.9 1.0
30/09:30pm 14.4 8.7 11.0 80 1.8 SSW 32 41 17 22 1022.0 - 1.0

Latest Capital City Observations: Canberra | Sydney | Melbourne | Brisbane | Adelaide | Perth | Hobart | Darwin

Other Formats:

Comma delimited format used in spreadsheet applications
http://www.bom.gov.au/fwo/IDN60901/IDN60901.94767.axf

JavaScript Object Notation format (JSON) in row-major order
http://www.bom.gov.au/fwo/IDN60901/IDN60901.94767.json